KMIV

Millville Municipal Airport

Millville, New Jersey, USA
METAR KMIV 221454Z AUTO 15007KT 10SM BKN050 BKN100 21/13 A3013 RMK AO2 SLP201 T02060128 58012
Observed Flight Rules
May-22 @ 14:54 UTC (24 minutes ago) Visual Flight Rules
Wind Visibility Clouds
150° at 7 knots 10 miles
  • Broken at 5,000' AGL
  • Broken at 10,000' AGL
Temperatures Readings
Current 21°C / 70°F
Dewpoint 13°C / 55°F
Humidity 60%
Altimeter 30.13" Hg
Pressure 1020.1 hPa
Elevation 23
METAR KMIV 221454Z AUTO 15007KT 10SM BKN050 BKN100 21/13 A3013 RMK AO2 SLP201 T02060128 58012
Observed Flight Rules
May-22 @ 14:54 UTC
(24 minutes ago)
VFR
Wind Visibility
150° at 7 knots 10 miles
Clouds
  • Broken at 5,000' AGL
  • Broken at 10,000' AGL
Temperature Dewpoint
21°C / 70°F 13°C / 55°F
Humidity Altimeter Pressure
60% 30.13" Hg 1020.1 hPa